Terminal Aerodrome Forecast
Issued by NWS

Home | Current Version | Previous Version | Text Only | Print | Product List | Glossary On
Versions: 1 2 3 4 5 6 7 8 9 10 11 12 13 14 15 16 17 18 19 20 21 22
000
FTUS45 KPIH 302000 AAA
TAFSUN
TAF AMD
KSUN 302017Z 3020/0118 VRB05KT P6SM BKN040
     FM010200 32011KT P6SM SCT035
     FM011200 31007KT P6SM BKN060=

USA.gov is the U.S. government's official web portal to all federal, state and local government web resources and services.